createdAt,value
2023-02-08T00:05:43.389Z,-1.90
2023-02-08T00:11:45.250Z,-2.00
2023-02-08T00:17:47.151Z,-2.00
2023-02-08T00:23:49.093Z,-1.90
2023-02-08T00:29:50.886Z,-2.00
2023-02-08T00:35:57.960Z,-2.10
2023-02-08T00:41:59.899Z,-2.10
2023-02-08T00:48:01.716Z,-2.10
2023-02-08T00:54:03.689Z,-2.10
2023-02-08T01:00:07.032Z,-2.00
2023-02-08T01:06:12.772Z,-1.90
2023-02-08T01:12:14.591Z,-2.00
2023-02-08T01:18:16.819Z,-2.10
2023-02-08T01:24:18.690Z,-2.10
2023-02-08T01:30:20.596Z,-2.10
2023-02-08T01:36:23.226Z,-2.10
2023-02-08T01:42:24.960Z,-2.20
2023-02-08T01:48:35.430Z,-2.20
2023-02-08T01:54:44.875Z,-2.00
2023-02-08T02:00:47.984Z,-2.00
2023-02-08T02:06:54.576Z,-2.10
2023-02-08T02:13:02.907Z,-2.40
2023-02-08T02:19:07.730Z,-2.50
2023-02-08T02:25:15.069Z,-2.60
2023-02-08T02:31:48.740Z,-2.40
2023-02-08T02:38:16.511Z,-2.40
2023-02-08T02:44:34.049Z,-2.40
2023-02-08T02:50:48.531Z,-2.50
2023-02-08T02:57:00.023Z,-2.60
2023-02-08T03:03:01.883Z,-2.70
2023-02-08T03:09:30.761Z,-2.70
2023-02-08T03:15:38.450Z,-2.70
2023-02-08T03:22:12.421Z,-2.80
2023-02-08T03:28:39.075Z,-2.80
2023-02-08T03:35:01.603Z,-2.80
2023-02-08T03:41:06.644Z,-2.70
2023-02-08T03:47:17.729Z,-2.80
2023-02-08T03:53:23.140Z,-2.70
2023-02-08T03:59:29.626Z,-2.70
2023-02-08T04:05:31.714Z,-2.60
2023-02-08T04:11:33.475Z,-2.70
2023-02-08T04:17:35.303Z,-2.70
2023-02-08T04:23:37.094Z,-2.90
2023-02-08T04:29:38.870Z,-2.90
2023-02-08T04:35:42.262Z,-2.90
2023-02-08T04:41:43.995Z,-2.90
2023-02-08T04:47:46.369Z,-3.10
2023-02-08T04:53:48.079Z,-3.10
2023-02-08T04:59:49.975Z,-3.10
2023-02-08T05:05:59.125Z,-3.30
2023-02-08T05:12:00.982Z,-3.40
2023-02-08T05:18:02.889Z,-3.40
2023-02-08T05:24:04.839Z,-3.40
2023-02-08T05:30:07.252Z,-3.40
2023-02-08T05:36:09.310Z,-3.40
2023-02-08T05:42:11.116Z,-3.30
2023-02-08T05:48:13.021Z,-3.40
2023-02-08T05:54:14.785Z,-3.40
2023-02-08T06:00:16.953Z,-3.40
2023-02-08T06:06:18.761Z,-3.50
2023-02-08T06:12:20.660Z,-3.50
2023-02-08T06:18:22.757Z,-3.50
2023-02-08T06:24:25.342Z,-3.50
2023-02-08T06:30:27.185Z,-3.30
2023-02-08T06:36:29.239Z,-3.30
2023-02-08T06:42:31.078Z,-3.40
2023-02-08T06:48:32.884Z,-3.30
2023-02-08T06:54:34.656Z,-3.30
2023-02-08T07:00:36.459Z,-3.30
2023-02-08T07:06:38.205Z,-3.30
2023-02-08T07:12:40.210Z,-3.30
2023-02-08T07:18:42.019Z,-3.30
2023-02-08T07:24:43.830Z,-3.20
2023-02-08T07:30:45.628Z,-3.20
2023-02-08T07:36:49.082Z,-3.00
2023-02-08T07:42:50.902Z,-2.80
2023-02-08T07:48:55.714Z,-2.80
2023-02-08T07:54:57.506Z,-2.70
2023-02-08T08:01:01.729Z,-2.90
2023-02-08T08:07:06.589Z,-2.90
2023-02-08T08:13:08.733Z,-2.70
2023-02-08T08:19:10.980Z,-2.40
2023-02-08T08:25:12.830Z,-2.20
2023-02-08T08:31:17.465Z,-1.80
2023-02-08T08:37:19.215Z,-1.50
2023-02-08T08:43:21.056Z,-0.80
2023-02-08T08:49:24.136Z,-0.10
2023-02-08T08:55:28.009Z,0.10
2023-02-08T09:01:30.989Z,0.20
2023-02-08T09:07:34.808Z,0.20
2023-02-08T09:13:37.219Z,0.30
2023-02-08T09:19:39.494Z,0.30
2023-02-08T09:25:41.450Z,0.20
2023-02-08T09:31:43.510Z,0.30
2023-02-08T09:37:45.652Z,0.30
2023-02-08T09:44:21.425Z,0.60
2023-02-08T09:50:37.572Z,0.50
2023-02-08T09:56:42.448Z,0.50
2023-02-08T10:02:45.375Z,0.80
2023-02-08T10:08:51.003Z,1.10
2023-02-08T10:15:11.477Z,1.30
2023-02-08T10:21:33.587Z,1.60
2023-02-08T10:27:59.537Z,1.90
2023-02-08T10:34:11.973Z,2.60
2023-02-08T10:40:21.232Z,3.00
2023-02-08T10:46:31.704Z,3.40
2023-02-08T10:52:33.575Z,3.70
2023-02-08T10:58:36.878Z,3.80
2023-02-08T11:05:14.561Z,4.00
2023-02-08T11:11:16.554Z,4.40
2023-02-08T11:17:29.802Z,4.60
2023-02-08T11:23:33.780Z,4.70
2023-02-08T11:29:35.710Z,4.90
2023-02-08T11:35:37.940Z,5.00
2023-02-08T11:41:44.583Z,5.10
2023-02-08T11:47:47.770Z,5.10
2023-02-08T11:53:49.668Z,5.30
2023-02-08T12:00:10.004Z,5.80
2023-02-08T12:06:46.876Z,5.80
2023-02-08T12:13:03.480Z,5.70
2023-02-08T12:19:43.365Z,6.10
2023-02-08T12:26:15.621Z,6.10
2023-02-08T12:32:23.581Z,6.00
2023-02-08T12:39:21.908Z,5.70
2023-02-08T12:45:43.909Z,5.90
2023-02-08T12:52:03.481Z,5.60
2023-02-08T12:58:14.088Z,5.60
2023-02-08T13:04:22.632Z,5.70
2023-02-08T13:10:34.152Z,5.70
2023-02-08T13:16:45.996Z,5.90
2023-02-08T13:22:50.106Z,5.60
2023-02-08T13:28:57.811Z,5.70
2023-02-08T13:35:24.993Z,5.90
2023-02-08T13:41:28.906Z,5.90
2023-02-08T13:47:34.532Z,6.00
2023-02-08T13:53:39.420Z,5.90
2023-02-08T13:59:42.387Z,5.80
2023-02-08T14:05:59.348Z,5.70
2023-02-08T14:12:26.091Z,5.60
2023-02-08T14:18:28.944Z,5.60
2023-02-08T14:24:40.251Z,5.30
2023-02-08T14:30:45.374Z,5.30
2023-02-08T14:36:47.727Z,5.20
2023-02-08T14:42:59.994Z,5.20
2023-02-08T14:49:03.350Z,5.10
2023-02-08T14:55:12.983Z,4.90
2023-02-08T15:01:18.300Z,4.80
2023-02-08T15:07:42.602Z,4.70
2023-02-08T15:13:50.730Z,4.60
2023-02-08T15:19:53.281Z,4.50
2023-02-08T15:26:19.084Z,4.40
2023-02-08T15:32:24.990Z,4.40
2023-02-08T15:38:27.170Z,4.20
2023-02-08T15:44:34.812Z,4.00
2023-02-08T15:50:36.951Z,3.90
2023-02-08T15:56:42.372Z,3.70
2023-02-08T16:02:44.893Z,3.70
2023-02-08T16:08:51.570Z,3.80
2023-02-08T16:14:56.875Z,3.70
2023-02-08T16:21:01.137Z,3.40
2023-02-08T16:27:06.323Z,3.20
2023-02-08T16:33:08.976Z,2.90
2023-02-08T16:39:16.550Z,2.70
2023-02-08T16:45:20.222Z,2.40
2023-02-08T16:51:26.563Z,2.00
2023-02-08T16:57:57.574Z,1.90
2023-02-08T17:03:59.895Z,1.80
2023-02-08T17:10:01.777Z,1.90
2023-02-08T17:16:03.779Z,1.90
2023-02-08T17:22:05.656Z,1.70
2023-02-08T17:28:17.204Z,1.50
2023-02-08T17:34:19.049Z,1.40
2023-02-08T17:40:22.671Z,1.50
2023-02-08T17:46:27.180Z,1.50
2023-02-08T17:52:29.110Z,1.30
2023-02-08T17:58:31.648Z,1.40
2023-02-08T18:04:33.597Z,1.60
2023-02-08T18:10:35.456Z,1.30
2023-02-08T18:16:37.522Z,1.40
2023-02-08T18:22:39.443Z,1.50
2023-02-08T18:28:44.718Z,1.80
2023-02-08T18:34:46.637Z,2.00
2023-02-08T18:40:48.429Z,2.30
2023-02-08T18:46:51.110Z,2.40
2023-02-08T18:52:52.872Z,2.40
2023-02-08T18:58:58.028Z,2.30
2023-02-08T19:04:59.972Z,2.30
2023-02-08T19:11:01.781Z,2.10
2023-02-08T19:17:03.654Z,2.00
2023-02-08T19:23:06.269Z,1.90
2023-02-08T19:29:14.609Z,1.70
2023-02-08T19:35:16.477Z,1.70
2023-02-08T19:41:22.880Z,1.60
2023-02-08T19:47:43.470Z,1.50
2023-02-08T19:53:48.122Z,1.50
2023-02-08T19:59:50.013Z,1.40
2023-02-08T20:05:54.730Z,1.40
2023-02-08T20:11:57.941Z,1.40
2023-02-08T20:18:02.185Z,1.30
2023-02-08T20:24:04.392Z,1.00
2023-02-08T20:30:06.800Z,0.80
2023-02-08T20:36:15.158Z,0.70
2023-02-08T20:42:17.020Z,0.60
2023-02-08T20:48:19.176Z,0.50
2023-02-08T20:54:24.315Z,0.40
2023-02-08T21:00:48.601Z,0.60
2023-02-08T21:06:48.650Z,0.70
2023-02-08T21:12:50.504Z,0.40
2023-02-08T21:18:52.717Z,0.20
2023-02-08T21:24:54.570Z,0.10
2023-02-08T21:31:04.144Z,0.00
2023-02-08T21:37:06.005Z,-0.10
2023-02-08T21:43:07.938Z,-0.30
2023-02-08T21:49:28.620Z,-0.40
2023-02-08T21:55:31.953Z,-0.40
2023-02-08T22:01:33.796Z,-0.40
2023-02-08T22:07:47.921Z,-0.50
2023-02-08T22:13:49.719Z,-0.50
2023-02-08T22:19:51.523Z,-0.60
2023-02-08T22:25:53.334Z,-0.50
2023-02-08T22:31:55.337Z,-0.40
2023-02-08T22:37:57.296Z,-0.30
2023-02-08T22:43:59.283Z,0.00
2023-02-08T22:50:01.590Z,0.20
2023-02-08T22:56:03.686Z,0.30
2023-02-08T23:02:05.900Z,0.40
2023-02-08T23:08:07.722Z,0.40
2023-02-08T23:14:09.601Z,0.40
2023-02-08T23:20:11.803Z,0.30
2023-02-08T23:26:18.137Z,0.30
2023-02-08T23:32:19.935Z,0.30
2023-02-08T23:38:21.851Z,0.10
2023-02-08T23:44:25.241Z,0.00
2023-02-08T23:50:27.195Z,-0.10
2023-02-08T23:56:32.068Z,-0.20
